createdAt,value
2022-08-05T00:00:20.304Z,35.28
2022-08-05T00:02:50.685Z,30.42
2022-08-05T00:06:02.817Z,35.00
2022-08-05T00:08:32.541Z,30.45
2022-08-05T00:11:01.421Z,30.58
2022-08-05T00:13:38.763Z,34.53
2022-08-05T00:16:12.982Z,30.17
2022-08-05T00:18:44.234Z,29.00
2022-08-05T00:21:14.500Z,32.60
2022-08-05T00:23:46.196Z,29.52
2022-08-05T00:26:21.983Z,30.15
2022-08-05T00:28:51.007Z,32.53
2022-08-05T00:31:53.696Z,32.67
2022-08-05T00:34:54.613Z,37.28
2022-08-05T00:39:58.002Z,28.83
2022-08-05T00:42:37.685Z,42.42
2022-08-05T00:45:08.532Z,30.00
2022-08-05T00:47:52.996Z,37.97
2022-08-05T00:50:25.396Z,39.70
2022-08-05T00:52:55.024Z,29.85
2022-08-05T00:55:23.067Z,33.38
2022-08-05T00:58:01.605Z,32.72
2022-08-05T01:00:32.138Z,35.42
2022-08-05T01:03:00.889Z,31.65
2022-08-05T01:05:28.462Z,32.78
2022-08-05T01:08:41.128Z,32.08
2022-08-05T01:11:10.241Z,32.60
2022-08-05T01:13:59.045Z,27.55
2022-08-05T01:16:37.683Z,28.33
2022-08-05T01:19:46.297Z,36.67
2022-08-05T01:22:32.146Z,30.63
2022-08-05T01:25:22.988Z,30.65
2022-08-05T01:28:06.018Z,24.88
2022-08-05T01:30:40.126Z,28.85
2022-08-05T01:33:25.346Z,30.88
2022-08-05T01:35:57.446Z,28.60
2022-08-05T01:38:29.919Z,33.53
2022-08-05T01:41:02.503Z,28.80
2022-08-05T01:43:30.834Z,32.78
2022-08-05T01:46:07.388Z,29.17
2022-08-05T01:48:49.548Z,35.20
2022-08-05T01:51:18.990Z,30.33
2022-08-05T01:53:57.121Z,29.60
2022-08-05T01:58:10.131Z,28.80
2022-08-05T01:59:26.903Z,26.73
2022-08-05T02:01:56.320Z,24.30
2022-08-05T02:04:28.198Z,25.85
2022-08-05T02:06:59.200Z,28.77
2022-08-05T02:09:27.260Z,28.40
2022-08-05T02:12:17.839Z,27.08
2022-08-05T02:14:53.381Z,27.92
2022-08-05T02:18:28.825Z,30.63
2022-08-05T02:20:25.187Z,31.45
2022-08-05T02:23:00.330Z,27.65
2022-08-05T02:25:49.302Z,31.02
2022-08-05T02:28:29.228Z,26.75
2022-08-05T02:35:27.667Z,30.58
2022-08-05T02:38:00.082Z,30.73
2022-08-05T02:40:27.868Z,29.25
2022-08-05T02:42:57.041Z,29.75
2022-08-05T02:45:27.181Z,29.65
2022-08-05T02:48:06.505Z,29.98
2022-08-05T02:50:38.737Z,30.35
2022-08-05T02:53:19.106Z,27.30
2022-08-05T02:55:55.290Z,30.50
2022-08-05T02:58:28.859Z,29.88
2022-08-05T03:01:01.866Z,30.08
2022-08-05T03:03:34.360Z,32.88
2022-08-05T03:06:53.999Z,31.63
2022-08-05T03:09:07.718Z,34.67
2022-08-05T03:11:55.142Z,33.53
2022-08-05T03:14:22.369Z,30.33
2022-08-05T03:16:49.858Z,31.67
2022-08-05T03:19:32.981Z,31.08
2022-08-05T03:22:00.785Z,35.92
2022-08-05T03:24:30.820Z,31.98
2022-08-05T03:26:59.256Z,33.60
2022-08-05T03:29:45.635Z,27.65
2022-08-05T03:32:15.947Z,32.58
2022-08-05T03:34:51.346Z,33.20
2022-08-05T03:37:21.342Z,35.47
2022-08-05T03:39:59.130Z,36.80
2022-08-05T03:42:32.805Z,29.85
2022-08-05T03:45:01.624Z,29.83
2022-08-05T03:47:35.415Z,34.50
2022-08-05T03:50:08.625Z,33.65
2022-08-05T03:55:54.083Z,28.00
2022-08-05T03:56:42.324Z,30.27
2022-08-05T03:59:47.240Z,31.30
2022-08-05T04:02:38.391Z,36.63
2022-08-05T04:15:40.064Z,38.60
2022-08-05T04:18:27.444Z,29.17
2022-08-05T04:20:58.781Z,23.63
2022-08-05T04:24:05.977Z,22.98
2022-08-05T04:26:20.965Z,28.52
2022-08-05T04:28:51.015Z,36.53
2022-08-05T04:31:20.072Z,31.60
2022-08-05T04:34:18.208Z,25.45
2022-08-05T04:36:49.512Z,22.50
2022-08-05T04:39:18.814Z,26.30
2022-08-05T04:41:48.247Z,27.90
2022-08-05T04:44:21.532Z,25.48
2022-08-05T04:47:08.961Z,22.67
2022-08-05T04:49:38.850Z,24.65
2022-08-05T04:52:27.666Z,27.42
2022-08-05T04:54:57.189Z,23.98
2022-08-05T04:57:28.593Z,17.38
2022-08-05T04:59:58.724Z,20.23
2022-08-05T05:02:37.470Z,18.38
2022-08-05T05:05:26.564Z,19.83
2022-08-05T05:08:01.848Z,23.17
2022-08-05T05:10:31.024Z,18.15
2022-08-05T05:13:01.653Z,21.33
2022-08-05T05:15:57.320Z,21.13
2022-08-05T05:18:30.967Z,18.05
2022-08-05T05:21:00.676Z,13.55
2022-08-05T05:23:39.220Z,14.93
2022-08-05T05:26:15.297Z,17.20
2022-08-05T05:28:42.826Z,21.48
2022-08-05T05:33:58.847Z,14.40
2022-08-05T05:36:28.518Z,11.50
2022-08-05T05:38:57.424Z,16.10
2022-08-05T05:41:24.975Z,18.55
2022-08-05T05:43:57.906Z,12.30
2022-08-05T05:46:27.677Z,13.52
2022-08-05T05:48:55.082Z,11.18
2022-08-05T05:51:24.155Z,14.60
2022-08-05T05:53:57.211Z,18.30
2022-08-05T05:56:33.021Z,17.55
2022-08-05T05:59:07.519Z,12.43
2022-08-05T06:01:38.954Z,15.25
2022-08-05T06:04:11.852Z,11.32
2022-08-05T06:06:47.627Z,12.38
2022-08-05T06:09:25.934Z,11.50
2022-08-05T06:12:04.309Z,8.77
2022-08-05T06:14:32.335Z,9.77
2022-08-05T06:17:01.880Z,11.07
2022-08-05T06:19:33.966Z,10.35
2022-08-05T06:22:03.938Z,11.10
2022-08-05T06:24:31.985Z,7.88
2022-08-05T06:26:59.065Z,12.07
2022-08-05T06:29:52.107Z,7.68
2022-08-05T06:32:24.890Z,8.88
2022-08-05T06:34:57.920Z,7.25
2022-08-05T06:37:57.020Z,9.07
2022-08-05T06:40:18.512Z,9.43
2022-08-05T06:42:52.825Z,8.73
2022-08-05T06:45:44.404Z,11.02
2022-08-05T06:48:47.023Z,8.07
2022-08-05T06:50:56.998Z,10.55
2022-08-05T06:53:28.384Z,8.85
2022-08-05T06:56:00.440Z,7.90
2022-08-05T06:58:35.323Z,8.27
2022-08-05T07:01:06.324Z,6.32
2022-08-05T07:03:35.054Z,7.50
2022-08-05T07:18:01.319Z,5.95
2022-08-05T07:19:04.888Z,8.35
2022-08-05T07:21:59.562Z,7.53
2022-08-05T07:24:22.283Z,6.10
2022-08-05T07:26:49.476Z,9.30
2022-08-05T07:29:17.030Z,8.25
2022-08-05T07:31:54.737Z,11.07
2022-08-05T07:34:26.249Z,7.30
2022-08-05T07:36:55.739Z,8.98
2022-08-05T07:39:24.628Z,7.40
2022-08-05T07:42:14.131Z,7.30
2022-08-05T07:44:42.904Z,5.38
2022-08-05T07:47:14.787Z,7.45
2022-08-05T07:49:43.637Z,7.00
2022-08-05T07:52:23.949Z,5.45
2022-08-05T07:54:53.403Z,7.13
2022-08-05T07:57:51.346Z,6.18
2022-08-05T08:00:11.403Z,6.80
2022-08-05T08:03:14.511Z,6.00
2022-08-05T08:05:29.049Z,7.72
2022-08-05T08:08:00.274Z,10.23
2022-08-05T08:10:28.681Z,11.75
2022-08-05T08:12:58.576Z,8.52
2022-08-05T08:15:37.304Z,13.05
2022-08-05T08:18:14.089Z,11.25
2022-08-05T08:20:44.242Z,16.42
2022-08-05T08:24:02.727Z,12.57
2022-08-05T08:26:02.777Z,7.03
2022-08-05T08:28:36.050Z,6.07
2022-08-05T08:31:07.886Z,6.47
2022-08-05T08:33:37.438Z,13.18
2022-08-05T08:38:56.930Z,6.40
2022-08-05T08:41:51.225Z,7.32
2022-08-05T08:45:18.248Z,9.55
2022-08-05T08:47:46.853Z,8.43
2022-08-05T08:50:22.856Z,6.88
2022-08-05T08:52:54.249Z,8.15
2022-08-05T08:55:31.982Z,7.80
2022-08-05T08:58:13.028Z,7.70
2022-08-05T09:00:42.579Z,11.52
2022-08-05T09:06:07.539Z,7.57
2022-08-05T09:08:26.580Z,9.18
2022-08-05T09:10:54.840Z,8.77
2022-08-05T09:13:23.492Z,8.57
2022-08-05T09:15:51.863Z,7.68
2022-08-05T09:18:18.993Z,10.25
2022-08-05T09:20:47.243Z,8.35
2022-08-05T09:23:21.970Z,9.90
2022-08-05T09:26:03.111Z,9.15
2022-08-05T09:28:33.797Z,7.82
2022-08-05T09:31:23.483Z,8.07
2022-08-05T09:33:58.761Z,10.10
2022-08-05T09:36:54.449Z,12.80
2022-08-05T09:39:41.917Z,9.85
2022-08-05T09:42:17.290Z,7.55
2022-08-05T09:44:56.790Z,14.30
2022-08-05T09:47:34.907Z,11.13
2022-08-05T09:50:18.043Z,11.30
2022-08-05T09:53:01.793Z,9.55
2022-08-05T09:55:57.261Z,8.68
2022-08-05T09:58:24.116Z,8.93
2022-08-05T10:00:54.146Z,8.65
2022-08-05T10:03:21.610Z,7.20
2022-08-05T10:06:07.821Z,6.78
2022-08-05T10:08:50.212Z,10.25
2022-08-05T10:11:21.105Z,9.48
2022-08-05T10:13:49.215Z,6.50
2022-08-05T10:16:41.825Z,9.77
2022-08-05T10:19:23.723Z,8.27
2022-08-05T10:22:15.801Z,10.77
2022-08-05T10:24:57.995Z,7.47
2022-08-05T10:28:09.153Z,6.45
2022-08-05T10:31:19.977Z,8.57
2022-08-05T10:33:02.574Z,6.60
2022-08-05T10:35:33.759Z,14.82
2022-08-05T10:38:08.612Z,7.68
2022-08-05T10:40:58.184Z,6.55
2022-08-05T10:43:53.377Z,9.07
2022-08-05T10:46:24.056Z,8.88
2022-08-05T10:49:02.764Z,8.13
2022-08-05T10:51:59.571Z,7.30
2022-08-05T10:54:56.190Z,9.68
2022-08-05T10:57:31.836Z,10.43
2022-08-05T11:00:20.862Z,6.05
2022-08-05T11:02:59.246Z,8.45
2022-08-05T11:06:08.348Z,8.82
2022-08-05T11:09:39.360Z,6.07
2022-08-05T11:12:41.214Z,8.75
2022-08-05T11:16:01.278Z,13.02
2022-08-05T11:18:26.384Z,12.30
2022-08-05T11:20:54.214Z,9.15
2022-08-05T11:23:33.712Z,9.32
2022-08-05T11:26:28.751Z,7.97
2022-08-05T11:29:12.788Z,8.38
2022-08-05T11:31:54.193Z,10.50
2022-08-05T11:34:37.830Z,10.13
2022-08-05T11:40:00.779Z,8.98
2022-08-05T11:42:38.040Z,6.13
2022-08-05T11:45:23.438Z,7.13
2022-08-05T11:47:56.054Z,7.40
2022-08-05T11:50:25.127Z,8.38
2022-08-05T11:52:57.663Z,9.20
2022-08-05T11:55:32.194Z,9.68
2022-08-05T11:58:09.941Z,6.63
2022-08-05T12:00:40.473Z,7.25
2022-08-05T12:03:29.461Z,10.07
2022-08-05T12:06:09.679Z,12.27
2022-08-05T12:08:57.590Z,12.38
2022-08-05T12:11:39.797Z,6.88
2022-08-05T12:14:08.775Z,6.45
2022-08-05T12:16:40.539Z,7.88
2022-08-05T12:20:25.800Z,7.25
2022-08-05T12:22:01.703Z,12.48
2022-08-05T12:24:28.731Z,7.70
2022-08-05T12:26:57.709Z,11.30
2022-08-05T12:29:26.683Z,8.00
2022-08-05T12:36:54.682Z,10.98
2022-08-05T12:39:34.252Z,14.65
2022-08-05T12:42:03.091Z,6.88
2022-08-05T12:44:33.606Z,11.13
2022-08-05T12:47:02.304Z,9.98
2022-08-05T12:50:04.221Z,6.30
2022-08-05T12:52:42.712Z,6.82
2022-08-05T12:55:23.302Z,6.43
2022-08-05T12:58:38.175Z,10.38
2022-08-05T13:02:01.083Z,5.97
2022-08-05T13:03:41.413Z,6.85
2022-08-05T13:06:52.043Z,11.75
2022-08-05T13:09:28.030Z,5.72
2022-08-05T13:12:13.214Z,10.23
2022-08-05T13:14:48.025Z,7.88
2022-08-05T13:17:41.300Z,7.20
2022-08-05T13:20:12.178Z,9.32
2022-08-05T13:22:43.422Z,7.20
2022-08-05T13:25:19.519Z,6.80
2022-08-05T13:30:33.862Z,6.95
2022-08-05T13:33:03.323Z,16.17
2022-08-05T13:35:47.544Z,9.63
2022-08-05T13:38:28.182Z,12.55
2022-08-05T13:40:59.889Z,7.65
2022-08-05T13:43:45.582Z,6.90
2022-08-05T13:46:16.321Z,5.60
2022-08-05T13:49:00.962Z,6.75
2022-08-05T13:51:40.456Z,10.80
2022-08-05T13:54:11.761Z,5.95
2022-08-05T13:56:45.137Z,13.25
2022-08-05T13:59:24.207Z,6.20
2022-08-05T14:01:56.815Z,7.22
2022-08-05T14:04:49.422Z,8.38
2022-08-05T14:07:55.705Z,6.05
2022-08-05T14:10:19.065Z,16.88
2022-08-05T14:12:55.191Z,8.35
2022-08-05T14:16:08.517Z,6.57
2022-08-05T14:18:15.142Z,6.20
2022-08-05T14:20:48.148Z,8.90
2022-08-05T14:23:25.145Z,6.38
2022-08-05T14:25:58.773Z,7.72
2022-08-05T14:28:28.909Z,9.35
2022-08-05T14:30:57.406Z,6.82
2022-08-05T14:33:24.651Z,33.13
2022-08-05T14:35:54.057Z,7.53
2022-08-05T14:38:31.808Z,9.48
2022-08-05T14:41:06.712Z,8.85
2022-08-05T14:44:01.781Z,9.80
2022-08-05T14:46:28.051Z,14.43
2022-08-05T14:48:59.550Z,12.60
2022-08-05T14:51:31.270Z,10.93
2022-08-05T14:54:26.351Z,9.32
2022-08-05T14:56:47.318Z,10.05
2022-08-05T14:59:15.436Z,8.20
2022-08-05T15:01:48.683Z,11.15
2022-08-05T15:04:20.459Z,8.52
2022-08-05T15:06:49.771Z,8.80
2022-08-05T15:09:52.140Z,7.05
2022-08-05T15:12:06.876Z,7.30
2022-08-05T15:14:48.328Z,26.10
2022-08-05T15:17:46.896Z,8.18
2022-08-05T15:20:07.535Z,10.00
2022-08-05T15:22:37.866Z,8.10
2022-08-05T15:25:11.648Z,6.90
2022-08-05T15:27:42.765Z,15.85
2022-08-05T15:30:14.389Z,11.57
2022-08-05T15:35:12.590Z,9.95
2022-08-05T15:38:33.752Z,13.13
2022-08-05T15:41:00.212Z,12.48
2022-08-05T15:43:20.416Z,9.13
2022-08-05T15:46:00.733Z,10.45
2022-08-05T15:48:30.125Z,12.50
2022-08-05T15:51:01.043Z,18.55
2022-08-05T15:53:38.515Z,7.85
2022-08-05T15:56:19.632Z,10.43
2022-08-05T15:58:47.815Z,13.57
2022-08-05T16:01:17.683Z,10.63
2022-08-05T16:03:50.423Z,9.82
2022-08-05T16:06:20.345Z,12.38
2022-08-05T16:08:50.258Z,8.65
2022-08-05T16:11:21.090Z,8.70
2022-08-05T16:14:05.994Z,9.85
2022-08-05T16:16:35.320Z,9.23
2022-08-05T16:19:03.669Z,10.23
2022-08-05T16:22:01.083Z,10.63
2022-08-05T16:24:40.650Z,21.90
2022-08-05T16:27:07.392Z,12.13
2022-08-05T16:29:37.311Z,11.25
2022-08-05T16:32:09.705Z,9.70
2022-08-05T16:34:39.237Z,11.13
2022-08-05T16:37:15.422Z,9.43
2022-08-05T16:40:05.735Z,12.45
2022-08-05T16:42:35.777Z,10.95
2022-08-05T16:46:02.894Z,9.55
2022-08-05T16:47:53.603Z,10.43
2022-08-05T16:50:24.486Z,7.95
2022-08-05T16:52:51.596Z,9.27
2022-08-05T16:55:20.396Z,20.00
2022-08-05T16:58:00.128Z,9.02
2022-08-05T17:00:34.340Z,11.25
2022-08-05T17:03:03.784Z,13.57
2022-08-05T17:05:37.608Z,15.75
2022-08-05T17:08:05.167Z,17.02
2022-08-05T17:10:34.968Z,17.50
2022-08-05T17:15:48.444Z,17.80
2022-08-05T17:18:17.131Z,15.35
2022-08-05T17:20:46.137Z,15.98
2022-08-05T17:24:04.595Z,29.75
2022-08-05T17:26:00.396Z,21.10
2022-08-05T17:28:29.492Z,16.40
2022-08-05T17:30:56.857Z,20.77
2022-08-05T17:33:25.643Z,24.50
2022-08-05T17:36:08.346Z,17.75
2022-08-05T17:38:39.875Z,22.35
2022-08-05T17:41:11.606Z,27.80
2022-08-05T17:43:55.858Z,24.23
2022-08-05T17:46:25.151Z,27.83
2022-08-05T17:48:52.426Z,10.95
2022-08-05T17:51:21.522Z,15.60
2022-08-05T17:53:50.934Z,14.23
2022-08-05T17:56:22.691Z,10.07
2022-08-05T17:58:51.162Z,12.65
2022-08-05T18:01:19.937Z,8.82
2022-08-05T18:03:59.368Z,15.65
2022-08-05T18:06:32.358Z,18.25
2022-08-05T18:08:59.677Z,13.65
2022-08-05T18:11:33.596Z,15.18
2022-08-05T18:14:07.537Z,20.98
2022-08-05T18:16:46.793Z,13.75
2022-08-05T18:19:18.742Z,24.95
2022-08-05T18:22:09.749Z,17.17
2022-08-05T18:24:39.526Z,21.05
2022-08-05T18:27:18.261Z,17.63
2022-08-05T18:29:51.916Z,15.73
2022-08-05T18:32:28.418Z,52.97
2022-08-05T18:34:57.946Z,31.75
2022-08-05T18:37:34.522Z,28.55
2022-08-05T18:40:34.397Z,23.42
2022-08-05T18:42:56.790Z,31.50
2022-08-05T18:45:24.929Z,27.00
2022-08-05T18:48:07.982Z,19.77
2022-08-05T18:50:57.214Z,22.27
2022-08-05T18:53:34.762Z,21.15
2022-08-05T18:56:12.619Z,21.35
2022-08-05T18:58:40.232Z,20.02
2022-08-05T19:01:10.277Z,22.67
2022-08-05T19:03:55.414Z,24.15
2022-08-05T19:06:37.176Z,23.27
2022-08-05T19:09:10.785Z,24.80
2022-08-05T19:12:00.376Z,25.50
2022-08-05T19:14:59.489Z,22.88
2022-08-05T19:17:12.927Z,25.13
2022-08-05T19:19:47.065Z,19.45
2022-08-05T19:22:17.184Z,20.75
2022-08-05T19:24:54.287Z,21.65
2022-08-05T19:27:30.123Z,19.73
2022-08-05T19:29:58.468Z,22.85
2022-08-05T19:32:26.104Z,19.67
2022-08-05T19:35:21.876Z,18.88
2022-08-05T19:38:10.643Z,21.83
2022-08-05T19:47:29.200Z,13.50
2022-08-05T19:50:01.199Z,14.57
2022-08-05T19:52:40.321Z,19.13
2022-08-05T19:56:13.768Z,13.55
2022-08-05T19:58:14.229Z,20.10
2022-08-05T20:00:42.852Z,18.23
2022-08-05T20:03:11.109Z,15.13
2022-08-05T20:05:43.403Z,18.50
2022-08-05T20:08:17.707Z,22.23
2022-08-05T20:10:45.002Z,19.65
2022-08-05T20:13:18.130Z,23.20
2022-08-05T20:15:57.874Z,16.67
2022-08-05T20:18:35.964Z,16.70
2022-08-05T20:21:06.788Z,17.95
2022-08-05T20:23:51.274Z,16.20
2022-08-05T20:26:22.055Z,18.48
2022-08-05T20:28:54.463Z,17.98
2022-08-05T20:31:37.670Z,26.45
2022-08-05T20:34:12.303Z,18.58
2022-08-05T20:36:43.006Z,19.63
2022-08-05T20:39:12.975Z,21.20
2022-08-05T20:41:43.988Z,19.55
2022-08-05T20:44:19.142Z,19.08
2022-08-05T20:46:59.257Z,18.55
2022-08-05T20:49:27.217Z,22.13
2022-08-05T20:51:57.392Z,25.25
2022-08-05T20:54:43.127Z,20.33
2022-08-05T21:00:19.607Z,25.13
2022-08-05T21:02:56.107Z,28.92
2022-08-05T21:05:24.452Z,27.52
2022-08-05T21:07:52.153Z,29.45
2022-08-05T21:10:20.589Z,24.08
2022-08-05T21:13:08.742Z,22.27
2022-08-05T21:15:36.928Z,24.55
2022-08-05T21:18:04.298Z,24.00
2022-08-05T21:20:32.588Z,20.85
2022-08-05T21:23:00.885Z,35.70
2022-08-05T21:25:33.934Z,26.23
2022-08-05T21:28:03.292Z,22.67
2022-08-05T21:30:31.718Z,24.75
2022-08-05T21:33:01.812Z,27.58
2022-08-05T21:35:43.683Z,22.85
2022-08-05T21:38:19.332Z,24.75
2022-08-05T21:40:46.581Z,25.98
2022-08-05T21:43:17.649Z,25.80
2022-08-05T21:45:56.674Z,22.83
2022-08-05T21:48:28.140Z,25.75
2022-08-05T21:50:55.735Z,22.75
2022-08-05T21:53:27.322Z,25.73
2022-08-05T21:56:06.579Z,28.65
2022-08-05T21:58:57.001Z,28.45
2022-08-05T22:01:25.001Z,24.02
2022-08-05T22:03:53.667Z,26.17
2022-08-05T22:06:22.944Z,26.27
2022-08-05T22:09:02.446Z,30.85
2022-08-05T22:11:41.213Z,27.50
2022-08-05T22:14:33.303Z,22.90
2022-08-05T22:17:00.202Z,26.13
2022-08-05T22:20:00.103Z,30.42
2022-08-05T22:22:26.908Z,27.45
2022-08-05T22:25:21.873Z,35.45
2022-08-05T22:28:08.390Z,30.55
2022-08-05T22:30:44.025Z,31.77
2022-08-05T22:33:56.754Z,34.92
2022-08-05T22:36:10.110Z,30.13
2022-08-05T22:38:37.146Z,32.50
2022-08-05T22:41:09.624Z,28.60
2022-08-05T22:43:38.466Z,27.80
2022-08-05T22:46:13.192Z,27.40
2022-08-05T22:48:43.252Z,40.90
2022-08-05T22:53:51.159Z,38.20
2022-08-05T22:56:30.381Z,32.22
2022-08-05T22:59:03.246Z,37.45
2022-08-05T23:02:04.782Z,43.20
2022-08-05T23:04:33.988Z,37.60
2022-08-05T23:07:01.352Z,37.17
2022-08-05T23:09:57.636Z,34.08
2022-08-05T23:12:18.013Z,60.95
2022-08-05T23:14:45.376Z,45.83
2022-08-05T23:17:34.918Z,38.30
2022-08-05T23:20:17.686Z,26.63
2022-08-05T23:22:47.458Z,22.98
2022-08-05T23:25:54.734Z,132.90
2022-08-05T23:28:07.616Z,21.23
2022-08-05T23:30:40.326Z,25.35
2022-08-05T23:33:16.163Z,24.85
2022-08-05T23:35:49.633Z,27.02
2022-08-05T23:38:17.044Z,19.80
2022-08-05T23:40:49.746Z,18.90
2022-08-05T23:43:25.090Z,20.58
2022-08-05T23:46:19.730Z,19.90
2022-08-05T23:49:00.658Z,28.45
2022-08-05T23:51:53.456Z,25.35
2022-08-05T23:54:30.467Z,19.02
2022-08-05T23:57:05.304Z,21.13
